Time;durP1;ratioP1;P1;durP2;ratioP2;P2;SDS_P1;SDS_P2;PMS_P1;PMS_P2;Temp;Humidity;BMP_temperature;BMP_pressure;BME280_temperature;BME280_humidity;BME280_pressure;Samples;Min_cycle;Max_cycle;Signal;HPM_P1;HPM_P2
2023/12/12 00:00:00;;;;;;;;;;;12.50;50.00;;;12.69;52.78;99939.16;5055176;28;19925;-34
2023/12/12 00:02:29;;;;;;;;;;;12.50;49.90;;;12.69;53.15;99934.13;5054833;28;20345;-34
2023/12/12 00:04:57;;;;;;;;;;;12.50;50.00;;;12.69;52.49;99939.16;5054785;28;20360;-34
2023/12/12 00:07:25;;;;;;;;;;;12.50;50.00;;;12.63;53.59;99918.38;5054592;28;20322;-34
2023/12/12 00:09:53;;;;;;;;;;;12.50;50.00;;;12.65;52.37;99926.97;5054985;28;19925;-35
2023/12/12 00:12:21;;;;;;;;;;;12.50;50.00;;;12.68;52.75;99922.28;5054772;28;19925;-34
2023/12/12 00:14:49;;;;;;;;;;;12.50;50.00;;;12.67;52.10;99923.00;5054518;28;19931;-35
2023/12/12 00:17:17;;;;;;;;;;;12.50;50.00;;;12.64;52.81;99922.69;5054687;28;19924;-34
2023/12/12 00:19:46;;;;;;;;;;;12.50;50.00;;;12.68;52.51;99921.38;5054756;28;19932;-33
2023/12/12 00:22:14;;;;;;;;;;;12.50;50.00;;;12.68;53.04;99917.25;5054407;28;19931;-35
2023/12/12 00:24:42;;;;;;;;;;;12.50;50.00;;;12.69;52.68;99919.06;5054454;28;19924;-35
2023/12/12 00:27:10;;;;;;;;;;;12.50;50.00;;;12.69;53.11;99929.09;5053229;28;20412;-35
2023/12/12 00:29:38;;;;;;;;;;;12.50;50.00;;;12.69;52.97;99924.09;5054236;28;20434;-34
2023/12/12 00:32:06;;;;;;;;;;;12.50;50.00;;;12.70;53.23;99928.38;5054449;28;19939;-39
2023/12/12 00:34:35;;;;;;;;;;;12.50;50.00;;;12.69;53.45;99929.09;5046374;28;19925;-35
2023/12/12 00:37:05;;;;;;;;;;;12.50;50.00;;;12.68;52.95;99932.34;5054695;28;19931;-35
2023/12/12 00:39:37;;;;;;;;;;;12.50;50.00;;;12.69;53.53;99924.09;5046395;28;19932;-36
2023/12/12 00:42:05;;;;;;;;;;;12.50;50.00;;;12.68;52.44;99928.94;5054278;28;19976;-34
2023/12/12 00:44:34;;;;;;;;;;;12.50;50.00;;;12.67;52.26;99925.53;5045740;28;20352;-34
2023/12/12 00:47:02;;;;;;;;;;;12.50;50.00;;;12.69;53.47;99928.22;5053949;28;19978;-35
2023/12/12 00:49:30;;;;;;;;;;;12.50;50.00;;;12.69;53.26;99931.63;5054098;28;19925;-34
2023/12/12 00:51:58;;;;;;;;;;;12.50;50.00;;;12.68;53.11;99932.34;5054520;28;19924;-35
2023/12/12 00:54:27;;;;;;;;;;;12.50;50.00;;;12.68;53.13;99927.31;5053733;28;20008;-35
2023/12/12 00:56:55;;;;;;;;;;;12.40;49.90;;;12.67;53.26;99920.50;5054514;28;19931;-33
2023/12/12 00:59:23;;;;;;;;;;;12.50;50.10;;;12.68;53.27;99932.34;5054751;28;20028;-34
2023/12/12 01:01:51;;;;;;;;;;;12.50;50.00;;;12.68;52.87;99932.34;5056122;28;19931;-34
2023/12/12 01:04:19;;;;;;;;;;;12.50;50.00;;;12.68;53.02;99937.38;5055048;28;19931;-34
2023/12/12 01:06:47;;;;;;;;;;;12.50;50.10;;;12.67;52.54;99924.63;5054268;28;19925;-34
2023/12/12 01:09:15;;;;;;;;;;;12.50;50.00;;;12.68;53.32;99933.97;5054320;28;20019;-34
2023/12/12 01:11:44;;;;;;;;;;;12.50;50.10;;;12.67;53.29;99925.53;5053952;28;20418;-34
2023/12/12 01:14:12;;;;;;;;;;;12.50;50.10;;;12.68;52.83;99922.28;5053111;28;20449;-35
2023/12/12 01:16:40;;;;;;;;;;;12.50;50.10;;;12.68;53.53;99922.28;5053952;28;19925;-34
2023/12/12 01:19:08;;;;;;;;;;;12.50;50.10;;;12.67;53.09;99925.53;5054079;28;19932;-35
2023/12/12 01:21:37;;;;;;;;;;;12.50;50.00;;;12.68;53.14;99922.28;5053688;28;20012;-35
2023/12/12 01:24:05;;;;;;;;;;;12.50;50.10;;;12.68;52.36;99929.81;5053212;28;20011;-34
2023/12/12 01:26:33;;;;;;;;;;;12.50;50.10;;;12.69;53.24;99934.13;5053243;28;19924;-34
2023/12/12 01:29:02;;;;;;;;;;;12.50;50.00;;;12.68;53.20;99922.28;5053325;28;20396;-34
2023/12/12 01:31:30;;;;;;;;;;;12.50;50.00;;;12.68;52.53;99926.41;5053300;28;19979;-34
2023/12/12 01:33:58;;;;;;;;;;;12.50;50.00;;;12.68;53.26;99927.31;5053168;28;19975;-34
2023/12/12 01:36:26;;;;;;;;;;;12.50;50.00;;;12.69;52.50;99919.06;5052772;28;20344;-34
2023/12/12 01:38:54;;;;;;;;;;;12.50;50.00;;;12.68;52.72;99922.28;5052743;28;20039;-35
2023/12/12 01:41:22;;;;;;;;;;;12.50;50.10;;;12.67;52.88;99925.53;5053187;28;19928;-35
2023/12/12 01:43:50;;;;;;;;;;;12.50;50.10;;;12.67;53.53;99915.47;5053405;28;19936;-34
2023/12/12 01:46:20;;;;;;;;;;;12.50;50.00;;;12.69;52.71;99934.13;5052878;28;19931;-34
2023/12/12 01:48:48;;;;;;;;;;;12.50;50.10;;;12.68;52.98;99934.84;5053576;28;19925;-35
2023/12/12 01:51:16;;;;;;;;;;;12.50;50.00;;;12.70;52.99;99935.03;5052717;28;20446;-34
2023/12/12 01:53:46;;;;;;;;;;;12.50;50.00;;;12.65;52.53;99931.09;5052699;28;20235;-35
2023/12/12 01:56:14;;;;;;;;;;;12.40;49.90;;;12.69;52.84;99934.13;5052789;28;20019;-33
2023/12/12 01:58:43;;;;;;;;;;;12.50;50.00;;;12.67;53.09;99935.56;5053066;28;20016;-33
2023/12/12 02:01:21;;;;;;;;;;;12.50;50.00;;;12.67;53.49;99935.56;5053437;28;19925;-34
2023/12/12 02:03:50;;;;;;;;;;;12.50;50.00;;;12.67;52.95;99935.56;5052943;28;19931;-37
2023/12/12 02:06:21;;;;;;;;;;;12.50;50.10;;;12.69;53.15;99934.13;5052465;28;19932;-35
2023/12/12 02:08:50;;;;;;;;;;;12.40;50.00;;;12.68;52.55;99938.97;5053229;28;19978;-35
2023/12/12 02:11:18;;;;;;;;;;;12.50;50.10;;;12.68;52.81;99942.38;5053186;28;19929;-34
2023/12/12 02:13:46;;;;;;;;;;;12.50;50.10;;;12.69;52.56;99938.25;5052786;28;19925;-34
2023/12/12 02:16:14;;;;;;;;;;;12.50;50.10;;;12.67;52.92;99940.59;5052461;28;19991;-33
2023/12/12 02:18:42;;;;;;;;;;;12.50;50.10;;;12.66;52.79;99928.75;5052483;28;19947;-35
2023/12/12 02:21:18;;;;;;;;;;;12.50;50.10;;;12.69;52.58;99939.16;5052725;28;19925;-35
2023/12/12 02:23:47;;;;;;;;;;;12.50;50.10;;;12.67;53.08;99929.66;5045606;28;20035;-35
2023/12/12 02:26:15;;;;;;;;;;;12.50;50.00;;;12.67;52.96;99930.53;5052001;28;20365;-36
2023/12/12 02:28:43;;;;;;;;;;;12.50;50.10;;;12.66;52.83;99933.78;5052383;28;20138;-36
2023/12/12 02:31:11;;;;;;;;;;;12.40;50.00;;;12.66;53.62;99931.25;5052885;28;19959;-34
2023/12/12 02:33:39;;;;;;;;;;;12.40;50.10;;;12.67;53.16;99933.06;5052364;28;19932;-34
2023/12/12 02:36:07;;;;;;;;;;;12.40;50.00;;;12.66;52.37;99923.72;5052390;28;19932;-33
2023/12/12 02:38:37;;;;;;;;;;;12.50;50.10;;;12.68;53.06;99931.44;5052144;28;20379;-34
2023/12/12 02:41:04;;;;;;;;;;;12.50;50.10;;;12.65;52.69;99914.41;5052248;28;20080;-34
2023/12/12 02:43:32;;;;;;;;;;;12.50;50.00;;;12.68;53.41;99927.31;5051754;28;20027;-35
2023/12/12 02:46:00;;;;;;;;;;;12.50;50.00;;;12.68;53.15;99917.25;5052305;28;19982;-34
2023/12/12 02:48:28;;;;;;;;;;;12.50;50.00;;;12.65;52.59;99911.88;5051987;28;20380;-35
2023/12/12 02:50:56;;;;;;;;;;;12.50;50.00;;;12.68;52.75;99907.22;5051388;28;20299;-35
2023/12/12 02:53:24;;;;;;;;;;;12.40;50.00;;;12.66;53.05;99908.66;5051963;28;20323;-35
2023/12/12 02:55:53;;;;;;;;;;;12.50;50.00;;;12.65;52.63;99909.38;5051547;28;20020;-34
2023/12/12 02:58:21;;;;;;;;;;;12.50;50.00;;;12.66;52.74;99913.66;5051616;28;19932;-34
2023/12/12 03:00:49;;;;;;;;;;;12.50;50.10;;;12.66;53.49;99908.66;5052158;28;19929;-34
2023/12/12 03:03:17;;;;;;;;;;;12.50;50.00;;;12.67;52.85;99905.41;5051971;28;20295;-34
2023/12/12 03:05:45;;;;;;;;;;;12.50;50.00;;;12.67;53.06;99907.03;5051714;28;19976;-34
2023/12/12 03:08:13;;;;;;;;;;;12.50;50.00;;;12.66;52.66;99903.63;5051993;28;20350;-33
2023/12/12 03:10:41;;;;;;;;;;;12.50;50.00;;;12.63;52.89;99898.28;5043752;28;19928;-34
2023/12/12 03:13:11;;;;;;;;;;;12.50;50.00;;;12.66;53.13;99898.59;5052122;28;19925;-33
2023/12/12 03:15:39;;;;;;;;;;;12.50;50.00;;;12.65;52.97;99900.94;5051171;28;20372;-35
2023/12/12 03:18:06;;;;;;;;;;;12.50;50.00;;;12.67;53.05;99900.38;5052199;28;19925;-34
2023/12/12 03:20:34;;;;;;;;;;;12.50;50.10;;;12.68;53.08;99902.19;5051635;28;20385;-34
2023/12/12 03:23:02;;;;;;;;;;;12.50;50.00;;;12.67;53.73;99899.50;5051736;28;20371;-35
2023/12/12 03:25:30;;;;;;;;;;;12.50;50.00;;;12.68;52.50;99896.25;5073348;22;20288;-36
2023/12/12 03:27:58;;;;;;;;;;;12.50;50.00;;;12.67;52.85;99895.34;5073952;28;20046;-36
2023/12/12 03:30:27;;;;;;;;;;;12.50;50.00;;;12.68;52.88;99897.16;5072478;28;19928;-36
2023/12/12 03:32:56;;;;;;;;;;;12.50;50.00;;;12.67;52.39;99895.34;5072450;28;19931;-36
2023/12/12 03:35:24;;;;;;;;;;;12.50;50.00;;;12.67;53.02;99890.34;5063938;28;19925;-36
2023/12/12 03:37:51;;;;;;;;;;;12.50;50.00;;;12.67;52.40;99900.38;5052099;28;19932;-35
2023/12/12 03:40:19;;;;;;;;;;;12.50;50.00;;;12.67;53.05;99895.34;5052296;28;20031;-35
2023/12/12 03:42:47;;;;;;;;;;;12.50;50.00;;;12.68;52.48;99901.28;5052093;28;19925;-36
2023/12/12 03:45:15;;;;;;;;;;;12.50;50.00;;;12.67;52.92;99897.88;5051886;28;19971;-36
2023/12/12 03:47:45;;;;;;;;;;;12.50;50.00;;;12.67;52.87;99897.88;5051833;28;19928;-36
2023/12/12 03:50:13;;;;;;;;;;;12.50;50.00;;;12.68;52.65;99892.13;5051854;28;19928;-36
2023/12/12 03:52:41;;;;;;;;;;;12.50;50.00;;;12.68;52.81;99892.13;5051756;28;19968;-36
2023/12/12 03:55:09;;;;;;;;;;;12.50;50.00;;;12.66;52.18;99893.56;5051745;28;20303;-35
2023/12/12 03:57:37;;;;;;;;;;;12.50;50.00;;;12.68;52.96;99892.13;5052065;28;19933;-35
2023/12/12 04:00:07;;;;;;;;;;;12.50;49.90;;;12.68;52.33;99892.13;5051838;28;20015;-35
2023/12/12 04:02:35;;;;;;;;;;;12.50;50.00;;;12.67;52.60;99884.41;5054191;28;20012;-36
2023/12/12 04:05:05;;;;;;;;;;;12.50;50.00;;;12.67;52.73;99894.47;5055553;28;20054;-36
2023/12/12 04:07:33;;;;;;;;;;;12.50;50.00;;;12.68;52.91;99892.13;5055265;28;20428;-35
2023/12/12 04:10:02;;;;;;;;;;;12.50;49.90;;;12.67;52.73;99895.34;5055443;28;19947;-35
2023/12/12 04:12:30;;;;;;;;;;;12.40;49.80;;;12.66;53.18;99903.63;5055269;28;20303;-36
2023/12/12 04:14:58;;;;;;;;;;;12.50;49.90;;;12.67;52.86;99895.34;5055072;28;19924;-36
2023/12/12 04:17:26;;;;;;;;;;;12.50;49.90;;;12.68;53.04;99896.25;5054787;28;19978;-36
2023/12/12 04:19:54;;;;;;;;;;;12.50;49.90;;;12.67;52.93;99897.88;5055512;28;19925;-35
2023/12/12 04:22:23;;;;;;;;;;;12.50;49.90;;;12.67;52.40;99900.38;5055831;28;19925;-36
2023/12/12 04:24:51;;;;;;;;;;;12.50;49.90;;;12.66;53.16;99891.06;5056383;28;20407;-36
2023/12/12 04:27:19;;;;;;;;;;;12.50;49.90;;;12.68;52.57;99894.63;5058884;28;19971;-35
2023/12/12 04:29:47;;;;;;;;;;;12.50;49.90;;;12.65;53.05;99885.84;5055525;28;19929;-35
2023/12/12 04:32:15;;;;;;;;;;;12.50;49.90;;;12.68;52.88;99889.63;5055525;28;19976;-35
2023/12/12 04:34:45;;;;;;;;;;;12.50;49.90;;;12.67;52.58;99890.34;5054709;28;19935;-36
2023/12/12 04:37:13;;;;;;;;;;;12.50;49.90;;;12.68;52.51;99891.22;5055224;28;19925;-36
2023/12/12 04:39:42;;;;;;;;;;;12.50;49.90;;;12.66;53.05;99893.56;5054917;28;19924;-36
2023/12/12 04:42:13;;;;;;;;;;;12.50;49.90;;;12.67;52.57;99895.34;5055417;28;19964;-36
2023/12/12 04:44:41;;;;;;;;;;;12.50;50.00;;;12.67;53.49;99890.34;5054758;28;20020;-36
2023/12/12 04:47:09;;;;;;;;;;;12.50;49.90;;;12.67;52.59;99887.81;5055127;28;19944;-36
2023/12/12 04:49:37;;;;;;;;;;;12.50;49.90;;;12.67;52.61;99892.84;5055082;28;19932;-35
2023/12/12 04:52:05;;;;;;;;;;;12.50;49.90;;;12.66;53.00;99893.56;5055284;28;20300;-36
2023/12/12 04:54:33;;;;;;;;;;;12.50;49.90;;;12.66;52.51;99888.53;5054516;28;19932;-37
2023/12/12 04:57:03;;;;;;;;;;;12.50;49.90;;;12.67;52.93;99884.41;5054750;28;19932;-35
2023/12/12 04:59:31;;;;;;;;;;;12.50;49.90;;;12.66;52.98;99878.50;5054635;28;20003;-36
2023/12/12 05:02:00;;;;;;;;;;;12.50;49.90;;;12.68;52.69;99872.03;5054551;28;19935;-36
2023/12/12 05:04:28;;;;;;;;;;;12.50;49.90;;;12.66;52.21;99868.44;5054026;28;19987;-36
2023/12/12 05:06:56;;;;;;;;;;;12.50;49.80;;;12.67;52.09;99870.22;5054742;28;19931;-36
2023/12/12 05:09:24;;;;;;;;;;;12.50;49.80;;;12.67;52.40;99865.19;5054706;28;19932;-36
2023/12/12 05:11:52;;;;;;;;;;;12.50;49.80;;;12.67;53.39;99865.19;5054581;28;19924;-36
2023/12/12 05:14:22;;;;;;;;;;;12.50;49.80;;;12.66;52.46;99860.91;5053127;28;19931;-36
2023/12/12 05:16:50;;;;;;;;;;;12.50;49.80;;;12.68;52.36;99864.47;5045993;28;20308;-35
2023/12/12 05:19:33;;;;;;;;;;;12.50;49.80;;;12.67;52.77;99862.69;5053648;28;20402;-36
2023/12/12 05:22:03;;;;;;;;;;;12.50;49.80;;;12.67;53.19;99870.22;5053805;28;20396;-37
2023/12/12 05:24:30;;;;;;;;;;;12.50;49.80;;;12.66;52.89;99868.44;5053169;28;20407;-36
2023/12/12 05:26:58;;;;;;;;;;;12.50;49.80;;;12.64;53.21;99867.41;5059249;28;20443;-35
2023/12/12 05:29:28;;;;;;;;;;;12.50;49.80;;;12.65;52.67;99879.22;5053420;28;19972;-35
2023/12/12 05:31:56;;;;;;;;;;;12.50;49.80;;;12.66;53.30;99878.50;5053271;28;19932;-35
2023/12/12 05:34:24;;;;;;;;;;;12.50;49.80;;;12.66;53.07;99875.97;5052700;28;19925;-35
2023/12/12 05:36:52;;;;;;;;;;;12.40;49.70;;;12.67;52.49;99880.28;5053193;28;19931;-35
2023/12/12 05:39:20;;;;;;;;;;;12.50;49.80;;;12.65;52.51;99876.69;5053264;28;20372;-35
2023/12/12 05:41:48;;;;;;;;;;;12.40;49.70;;;12.66;51.82;99878.50;5053299;28;20336;-35
2023/12/12 05:44:16;;;;;;;;;;;12.50;49.80;;;12.65;52.19;99874.19;5052940;28;19924;-35
2023/12/12 05:46:46;;;;;;;;;;;12.50;49.80;;;12.65;52.56;99873.28;5052775;28;19973;-35
2023/12/12 05:49:13;;;;;;;;;;;12.50;49.80;;;12.66;53.00;99868.44;5052935;28;19972;-35
2023/12/12 05:51:41;;;;;;;;;;;12.50;49.80;;;12.67;52.75;99869.34;5052974;28;19978;-35
2023/12/12 05:54:11;;;;;;;;;;;12.40;49.70;;;12.66;52.46;99858.38;5052940;28;19931;-35
2023/12/12 05:56:42;;;;;;;;;;;12.40;49.70;;;12.65;52.83;99861.63;5053011;28;19949;-34
2023/12/12 05:59:14;;;;;;;;;;;12.50;49.80;;;12.64;52.74;99862.38;5053185;28;19964;-35
2023/12/12 06:01:42;;;;;;;;;;;12.50;49.80;;;12.65;52.71;99860.72;5052529;28;19937;-34
2023/12/12 06:04:12;;;;;;;;;;;12.40;49.70;;;12.64;51.90;99864.88;5052618;28;19925;-35
2023/12/12 06:06:42;;;;;;;;;;;12.50;49.80;;;12.64;53.23;99858.97;5052410;28;19925;-34
2023/12/12 06:09:11;;;;;;;;;;;12.40;49.70;;;12.63;52.43;99862.19;5052764;28;20007;-35
2023/12/12 06:11:39;;;;;;;;;;;12.50;49.80;;;12.59;52.27;99860.94;5052537;28;20392;-34
2023/12/12 06:14:07;;;;;;;;;;;12.40;49.60;;;12.62;52.76;99861.31;5052977;28;20359;-35
2023/12/12 06:16:35;;;;;;;;;;;12.40;49.70;;;12.63;52.07;99852.16;5052505;28;19982;-35
2023/12/12 06:19:04;;;;;;;;;;;12.40;49.70;;;12.62;52.74;99861.31;5052665;28;19925;-35
2023/12/12 06:21:34;;;;;;;;;;;12.40;49.70;;;12.63;52.91;99863.09;5053094;28;19925;-35
2023/12/12 06:24:02;;;;;;;;;;;12.40;49.70;;;12.62;52.75;99860.41;5053501;28;20446;-36
2023/12/12 06:26:31;;;;;;;;;;;12.40;49.70;;;12.60;52.27;99857.72;5057975;28;19948;-35
2023/12/12 06:28:59;;;;;;;;;;;12.40;49.70;;;12.59;52.30;99865.97;5052986;28;20002;-34
2023/12/12 06:31:27;;;;;;;;;;;12.40;49.70;;;12.61;52.50;99869.56;5052910;28;19925;-36
2023/12/12 06:33:55;;;;;;;;;;;12.40;49.70;;;12.58;52.46;99860.81;5052651;28;20018;-35
2023/12/12 06:36:24;;;;;;;;;;;12.40;49.70;;;12.61;52.14;99867.03;5052287;28;19964;-36
2023/12/12 06:38:53;;;;;;;;;;;12.40;49.70;;;12.61;52.41;99861.13;5052399;28;19925;-36
2023/12/12 06:41:21;;;;;;;;;;;12.40;49.70;;;12.60;52.53;99861.84;5053071;28;20428;-36
2023/12/12 06:43:49;;;;;;;;;;;12.40;49.70;;;12.58;52.75;99869.25;5052480;28;19928;-36
2023/12/12 06:46:18;;;;;;;;;;;12.40;49.70;;;12.59;52.76;99865.97;5053035;28;20447;-36
2023/12/12 06:48:46;;;;;;;;;;;12.40;49.70;;;12.55;52.47;99863.88;5052510;28;19925;-36
2023/12/12 06:51:14;;;;;;;;;;;12.40;49.70;;;12.59;52.73;99871.00;5052494;28;20346;-36
2023/12/12 06:53:42;;;;;;;;;;;12.40;49.70;;;12.59;52.86;99865.09;5051931;28;19931;-36
2023/12/12 06:56:11;;;;;;;;;;;12.40;49.70;;;12.59;52.75;99858.44;5052029;28;19924;-36
2023/12/12 06:58:39;;;;;;;;;;;12.40;49.70;;;12.59;52.75;99860.06;5051881;28;20458;-36
2023/12/12 07:01:08;;;;;;;;;;;12.40;49.60;;;12.59;52.60;99865.09;5052539;28;19932;-36
2023/12/12 07:03:36;;;;;;;;;;;12.40;49.70;;;12.59;52.67;99871.00;5052026;28;20011;-36
2023/12/12 07:06:08;;;;;;;;;;;12.40;49.70;;;12.57;53.23;99869.97;5051659;28;19925;-36
2023/12/12 07:08:37;;;;;;;;;;;12.40;49.70;;;12.58;52.63;99864.22;5051617;28;20395;-36
2023/12/12 07:11:05;;;;;;;;;;;12.40;49.60;;;12.57;52.71;99867.44;5052193;28;19924;-36
2023/12/12 07:13:34;;;;;;;;;;;12.40;49.60;;;12.58;52.24;99864.22;5051673;28;20011;-36
2023/12/12 07:16:03;;;;;;;;;;;12.40;49.70;;;12.59;52.09;99868.50;5051663;28;20024;-36
2023/12/12 07:18:31;;;;;;;;;;;12.40;49.60;;;12.59;52.20;99868.50;5052083;28;19925;-36
2023/12/12 07:20:59;;;;;;;;;;;12.40;49.60;;;12.58;52.39;99874.28;5051883;28;19929;-35
2023/12/12 07:23:27;;;;;;;;;;;12.40;49.60;;;12.57;52.56;99875.00;5052079;28;19924;-35
2023/12/12 07:25:55;;;;;;;;;;;12.40;49.60;;;12.57;52.46;99875.00;5049673;28;20020;-36
2023/12/12 07:28:24;;;;;;;;;;;12.40;49.60;;;12.57;52.70;99872.47;5051586;28;19937;-35
2023/12/12 07:30:54;;;;;;;;;;;12.40;49.60;;;12.57;52.91;99877.50;5051466;28;19925;-35
2023/12/12 07:33:22;;;;;;;;;;;12.40;49.60;;;12.58;52.24;99884.31;5051491;28;19971;-36
2023/12/12 07:35:50;;;;;;;;;;;12.40;49.60;;;12.57;51.87;99874.09;5051428;28;20027;-35
2023/12/12 07:38:18;;;;;;;;;;;12.40;49.60;;;12.57;51.96;99872.47;5054719;28;19974;-35
2023/12/12 07:40:46;;;;;;;;;;;12.40;49.60;;;12.57;52.99;99867.44;5055535;28;19924;-35
2023/12/12 07:43:14;;;;;;;;;;;12.40;49.60;;;12.56;52.64;99870.69;5055958;28;19925;-35
2023/12/12 07:45:42;;;;;;;;;;;12.40;49.60;;;12.52;52.21;99863.50;5054777;28;20380;-35
2023/12/12 07:48:11;;;;;;;;;;;12.40;49.60;;;12.56;52.08;99873.19;5055712;28;19928;-35
2023/12/12 07:50:40;;;;;;;;;;;12.40;49.60;;;12.56;52.97;99865.66;5055027;28;20412;-35
2023/12/12 07:53:08;;;;;;;;;;;12.40;49.60;;;12.54;52.91;99862.06;5055423;28;19924;-35
2023/12/12 07:55:36;;;;;;;;;;;12.40;49.60;;;12.55;52.79;99857.94;5055057;28;19951;-35
2023/12/12 07:58:04;;;;;;;;;;;12.40;49.60;;;12.54;52.20;99849.50;5055093;28;19925;-35
2023/12/12 08:00:32;;;;;;;;;;;12.40;49.60;;;12.55;51.90;99842.88;5055016;28;19936;-35
2023/12/12 08:03:00;;;;;;;;;;;12.40;50.20;;;12.54;52.48;99844.47;5055351;28;20021;-35
2023/12/12 08:05:29;;;;;;;;;;;12.30;49.50;;;12.54;53.03;99841.97;5054665;28;20012;-36
2023/12/12 08:08:01;;;;;;;;;;;12.40;49.60;;;12.53;52.47;99850.22;5055239;28;20369;-35
2023/12/12 08:10:30;;;;;;;;;;;12.40;49.60;;;12.54;52.60;99841.06;5054970;28;19971;-35
2023/12/12 08:12:58;;;;;;;;;;;12.30;49.50;;;12.55;52.12;99848.78;5055291;28;19971;-35
2023/12/12 08:15:26;;;;;;;;;;;12.40;49.60;;;12.56;52.18;99855.59;5054820;28;19924;-35
2023/12/12 08:17:54;;;;;;;;;;;12.40;49.60;;;12.54;52.55;99841.97;5054520;28;19924;-36
2023/12/12 08:20:22;;;;;;;;;;;12.40;49.60;;;12.56;52.16;99845.56;5054774;28;19969;-35
2023/12/12 08:22:51;;;;;;;;;;;12.40;49.60;;;12.56;52.75;99834.59;5054707;28;19925;-35
2023/12/12 08:25:21;;;;;;;;;;;12.40;49.60;;;12.55;52.52;99843.75;5059475;28;19924;-35
2023/12/12 08:27:49;;;;;;;;;;;12.40;49.60;;;12.55;52.60;99840.34;5055512;28;20285;-35
2023/12/12 08:30:17;;;;;;;;;;;12.40;49.60;;;12.54;52.46;99836.06;5054698;28;20387;-35
2023/12/12 08:32:45;;;;;;;;;;;12.40;49.60;;;12.55;52.40;99833.72;5055631;28;19931;-35
2023/12/12 08:35:13;;;;;;;;;;;12.40;49.60;;;12.55;52.83;99838.75;5054399;28;19929;-35
2023/12/12 08:37:41;;;;;;;;;;;12.40;49.60;;;12.55;52.46;99836.22;5054102;28;19929;-35
2023/12/12 08:40:11;;;;;;;;;;;12.40;49.60;;;12.55;52.83;99826.19;5054620;28;20392;-35
2023/12/12 08:42:40;;;;;;;;;;;12.30;49.50;;;12.55;52.95;99828.69;5054217;28;19924;-35
2023/12/12 08:45:09;;;;;;;;;;;12.40;49.60;;;12.56;52.41;99830.47;5054123;28;20460;-36
2023/12/12 08:47:37;;;;;;;;;;;12.40;49.60;;;12.55;52.44;99823.66;5053823;28;19928;-36
2023/12/12 08:50:09;;;;;;;;;;;12.40;49.60;;;12.55;52.97;99823.66;5053277;28;20023;-35
2023/12/12 08:52:37;;;;;;;;;;;12.30;49.50;;;12.57;53.14;99824.72;5054424;28;19936;-35
2023/12/12 08:55:09;;;;;;;;;;;12.40;49.50;;;12.57;52.88;99821.31;5054099;28;19925;-36
2023/12/12 08:57:39;;;;;;;;;;;12.30;49.50;;;12.57;51.71;99823.84;5054721;28;19989;-36
2023/12/12 09:00:10;;;;;;;;;;;12.40;49.50;;;12.56;53.04;99820.44;5054055;28;19925;-35
2023/12/12 09:02:39;;;;;;;;;;;12.40;49.50;;;12.56;53.07;99825.47;5053777;28;19978;-35
2023/12/12 09:05:07;;;;;;;;;;;12.40;49.60;;;12.57;52.48;99822.22;5053800;28;20070;-35
2023/12/12 09:07:35;;;;;;;;;;;12.40;49.60;;;12.57;53.05;99813.78;5053848;28;20023;-35
2023/12/12 09:10:04;;;;;;;;;;;12.40;49.50;;;12.56;52.17;99805.34;5053942;28;20012;-36
2023/12/12 09:12:32;;;;;;;;;;;12.40;49.60;;;12.57;53.09;99802.13;5053918;28;19951;-35
2023/12/12 09:15:01;;;;;;;;;;;12.40;49.60;;;12.57;52.20;99811.28;5053382;28;20358;-35
2023/12/12 09:17:29;;;;;;;;;;;12.40;49.60;;;12.57;51.92;99799.59;5053784;28;19925;-36
2023/12/12 09:19:59;;;;;;;;;;;12.40;49.60;;;12.57;52.52;99797.09;5053632;28;20019;-35
2023/12/12 09:22:27;;;;;;;;;;;12.40;49.50;;;12.58;52.58;99801.41;5054181;28;20417;-35
2023/12/12 09:24:58;;;;;;;;;;;12.40;49.60;;;12.58;52.17;99803.91;5054860;28;19987;-36
2023/12/12 09:27:25;;;;;;;;;;;12.40;49.60;;;12.58;52.53;99793.84;5058496;28;19928;-36
2023/12/12 09:29:53;;;;;;;;;;;12.40;49.50;;;12.57;52.85;99792.06;5053452;28;19972;-35
2023/12/12 09:32:24;;;;;;;;;;;12.40;49.50;;;12.58;52.86;99788.84;5053608;28;20015;-36
2023/12/12 09:34:52;;;;;;;;;;;12.40;49.50;;;12.57;52.11;99782.00;5053168;28;19925;-35
2023/12/12 09:37:22;;;;;;;;;;;12.40;49.50;;;12.59;52.23;99780.53;5053311;28;19931;-35
2023/12/12 09:39:50;;;;;;;;;;;12.40;49.60;;;12.60;52.74;99787.34;5052960;28;20017;-35
2023/12/12 09:42:18;;;;;;;;;;;12.40;49.60;;;12.59;52.66;99777.13;5053163;28;19932;-35
2023/12/12 09:44:47;;;;;;;;;;;12.40;49.50;;;12.59;52.42;99780.53;5053341;28;19932;-35
2023/12/12 09:47:15;;;;;;;;;;;12.40;49.50;;;12.61;52.42;99776.59;5053583;28;19924;-36
2023/12/12 09:49:45;;;;;;;;;;;12.40;49.90;;;12.60;52.02;99772.28;5052950;28;19983;-35
2023/12/12 09:52:15;;;;;;;;;;;12.40;49.60;;;12.60;52.44;99767.25;5053007;28;19936;-35
2023/12/12 09:54:44;;;;;;;;;;;12.40;49.50;;;12.62;52.53;99765.81;5052298;28;20415;-36
2023/12/12 09:57:11;;;;;;;;;;;12.40;49.50;;;12.53;52.89;99739.69;5053384;28;20024;-35
2023/12/12 09:59:40;;;;;;;;;;;12.40;49.50;;;12.61;52.40;99743.91;5052535;28;19983;-35
2023/12/12 10:02:08;;;;;;;;;;;12.40;49.50;;;12.64;52.28;99740.84;5052928;28;20023;-35
2023/12/12 10:04:47;;;;;;;;;;;12.40;49.60;;;12.66;52.22;99732.72;5052485;28;19925;-35
2023/12/12 10:07:15;;;;;;;;;;;12.40;49.50;;;12.66;51.96;99732.72;5053004;28;20016;-35
2023/12/12 10:09:43;;;;;;;;;;;12.50;49.60;;;12.68;52.62;99721.22;5054125;28;20308;-36
2023/12/12 10:12:11;;;;;;;;;;;12.50;49.50;;;12.68;52.73;99721.22;5053976;28;19968;-35
2023/12/12 10:14:40;;;;;;;;;;;12.50;49.50;;;12.68;52.13;99721.22;5052517;28;19924;-35
2023/12/12 10:17:10;;;;;;;;;;;12.50;49.50;;;12.69;52.07;99712.97;5052788;28;19924;-35
2023/12/12 10:19:38;;;;;;;;;;;12.50;49.50;;;12.71;52.05;99701.44;5052446;28;19979;-36
2023/12/12 10:22:08;;;;;;;;;;;12.50;49.50;;;12.72;52.42;99708.25;5044480;28;19991;-35
2023/12/12 10:24:36;;;;;;;;;;;12.50;49.40;;;12.75;52.40;99702.66;5052262;28;19940;-36
2023/12/12 10:27:05;;;;;;;;;;;12.60;49.40;;;12.75;52.60;99685.97;5052572;28;19931;-35
2023/12/12 10:29:33;;;;;;;;;;;12.60;49.40;;;12.75;51.88;99680.94;5052599;28;20428;-36
2023/12/12 10:32:02;;;;;;;;;;;12.60;49.40;;;12.76;51.49;99677.69;5052420;28;19932;-36
2023/12/12 10:34:30;;;;;;;;;;;12.60;49.50;;;12.76;52.57;99667.66;5051823;28;19931;-36
2023/12/12 10:36:58;;;;;;;;;;;12.60;49.50;;;12.75;52.13;99683.44;5052659;28;20396;-36
2023/12/12 10:39:30;;;;;;;;;;;12.50;49.40;;;12.76;52.26;99675.19;5052417;28;19947;-36
2023/12/12 10:41:59;;;;;;;;;;;12.60;49.50;;;12.78;52.08;99668.66;5052235;28;20289;-37
2023/12/12 10:44:30;;;;;;;;;;;12.60;49.50;;;12.78;52.01;99662.75;5051956;28;20339;-36
2023/12/12 10:46:58;;;;;;;;;;;12.60;49.50;;;12.79;52.82;99664.53;5051901;28;20020;-36
2023/12/12 10:49:31;;;;;;;;;;;12.60;49.50;;;12.77;52.03;99661.84;5052220;28;19964;-36
2023/12/12 10:51:59;;;;;;;;;;;12.50;49.40;;;12.77;51.84;99656.84;5051999;28;19925;-36
2023/12/12 10:54:28;;;;;;;;;;;12.50;49.40;;;12.78;51.67;99651.06;5051417;28;19929;-36
2023/12/12 10:56:56;;;;;;;;;;;12.50;49.40;;;12.77;51.99;99646.78;5051806;28;19924;-35
2023/12/12 10:59:24;;;;;;;;;;;12.60;49.50;;;12.77;52.59;99641.75;5052818;28;19925;-35
2023/12/12 11:02:12;;;;;;;;;;;12.50;49.40;;;12.77;52.03;99626.66;5045168;28;19932;-35
2023/12/12 11:04:40;;;;;;;;;;;12.60;49.40;;;12.80;51.79;99631.13;5053388;28;19931;-36
2023/12/12 11:07:08;;;;;;;;;;;12.60;49.40;;;12.81;52.00;99628.78;5045213;28;20020;-36
2023/12/12 11:09:37;;;;;;;;;;;12.60;49.50;;;12.81;52.26;99623.75;5054004;28;20001;-37
2023/12/12 11:12:06;;;;;;;;;;;12.60;49.50;;;12.84;51.83;99613.13;5052045;28;20292;-36
2023/12/12 11:14:34;;;;;;;;;;;12.60;49.40;;;12.86;52.52;99612.56;5051345;28;20311;-36
2023/12/12 11:17:02;;;;;;;;;;;12.70;49.50;;;12.89;52.01;99612.91;5051826;28;20044;-35
2023/12/12 11:19:30;;;;;;;;;;;12.70;49.40;;;12.90;51.77;99604.59;5051792;28;20292;-36
2023/12/12 11:21:58;;;;;;;;;;;12.70;49.40;;;12.92;52.20;99588.78;5051811;28;20043;-36